Time;durP1;ratioP1;P1;durP2;ratioP2;P2;SDS_P1;SDS_P2;PMS_P1;PMS_P2;Temp;Humidity;BMP_temperature;BMP_pressure;BME280_temperature;BME280_humidity;BME280_pressure;Samples;Min_cycle;Max_cycle;Signal;HPM_P1;HPM_P2
2023/09/16 00:00:33;;;;;;;4.80;3.57;;;;;;;;;;5044313;28;20496;-78
2023/09/16 00:03:01;;;;;;;5.00;3.40;;;;;;;;;;5045536;28;20962;-77
2023/09/16 00:05:29;;;;;;;6.17;3.87;;;;;;;;;;5042094;28;20449;-78
2023/09/16 00:07:58;;;;;;;9.30;3.73;;;;;;;;;;5045958;28;20486;-78
2023/09/16 00:10:28;;;;;;;6.17;3.20;;;;;;;;;;5044628;28;20430;-78
2023/09/16 00:13:02;;;;;;;5.60;3.47;;;;;;;;;;5045464;28;20438;-79
2023/09/16 00:15:32;;;;;;;4.43;3.33;;;;;;;;;;5046739;28;20497;-79
2023/09/16 00:18:04;;;;;;;5.43;3.60;;;;;;;;;;5047466;28;20596;-79
2023/09/16 00:20:45;;;;;;;5.20;3.50;;;;;;;;;;5049065;28;20482;-78
2023/09/16 00:23:15;;;;;;;5.20;3.97;;;;;;;;;;5046842;28;20450;-78
2023/09/16 00:25:48;;;;;;;9.27;5.80;;;;;;;;;;5048710;28;20488;-78
2023/09/16 00:28:16;;;;;;;5.03;3.87;;;;;;;;;;5077835;22;20459;-76
2023/09/16 00:30:48;;;;;;;5.23;3.67;;;;;;;;;;5018369;28;20558;-77
2023/09/16 00:33:19;;;;;;;5.67;4.00;;;;;;;;;;5019617;28;20533;-76
2023/09/16 00:35:46;;;;;;;7.67;4.07;;;;;;;;;;5018854;28;21012;-76
2023/09/16 00:38:15;;;;;;;6.10;3.37;;;;;;;;;;5018221;28;20447;-76
2023/09/16 00:43:21;;;;;;;5.90;3.80;;;;;;;;;;2819714;22;21036;-79
2023/09/16 00:45:52;;;;;;;8.20;4.20;;;;;;;;;;5064306;22;20473;-77
2023/09/16 00:48:21;;;;;;;8.60;6.67;;;;;;;;;;5037508;28;20448;-75
2023/09/16 00:50:53;;;;;;;11.57;4.77;;;;;;;;;;5037818;28;20450;-75
2023/09/16 00:53:21;;;;;;;6.27;4.37;;;;;;;;;;5051025;28;20828;-75
2023/09/16 00:55:52;;;;;;;5.53;3.97;;;;;;;;;;5050766;28;20581;-74
2023/09/16 00:58:26;;;;;;;5.97;3.90;;;;;;;;;;5034964;28;20553;-73
2023/09/16 01:01:00;;;;;;;7.93;4.30;;;;;;;;;;5036164;28;20485;-75
2023/09/16 01:03:41;;;;;;;6.30;4.10;;;;;;;;;;5037715;28;20454;-75
2023/09/16 01:06:10;;;;;;;6.47;4.33;;;;;;;;;;5036100;28;20890;-75
2023/09/16 01:08:44;;;;;;;6.10;3.97;;;;;;;;;;5036281;28;20876;-75
2023/09/16 01:44:28;;;;;;;7.33;4.43;;;;;;;;;;5080944;28;20500;-78
2023/09/16 01:46:58;;;;;;;8.40;4.67;;;;;;;;;;5084438;28;20498;-78
2023/09/16 01:49:30;;;;;;;6.50;4.53;;;;;;;;;;5086796;28;20452;-78
2023/09/16 01:52:02;;;;;;;6.80;4.90;;;;;;;;;;5084198;28;20474;-79
2023/09/16 01:54:38;;;;;;;7.93;4.40;;;;;;;;;;5083333;28;20456;-78
2023/09/16 01:57:08;;;;;;;6.20;4.20;;;;;;;;;;5085023;28;20919;-79
2023/09/16 01:59:38;;;;;;;4.63;3.27;;;;;;;;;;5085120;28;21074;-78
2023/09/16 02:02:08;;;;;;;6.93;4.27;;;;;;;;;;5087966;28;20934;-79
2023/09/16 02:04:43;;;;;;;5.90;4.80;;;;;;;;;;5087261;28;20553;-79
2023/09/16 02:07:12;;;;;;;7.53;4.60;;;;;;;;;;5086578;28;20459;-78
2023/09/16 02:09:41;;;;;;;6.90;4.30;;;;;;;;;;5085836;28;20460;-78
2023/09/16 02:12:24;;;;;;;5.90;4.43;;;;;;;;;;5084625;28;20463;-78
2023/09/16 02:14:57;;;;;;;5.97;4.40;;;;;;;;;;5082617;28;20453;-78
2023/09/16 02:17:26;;;;;;;7.40;5.10;;;;;;;;;;5084325;28;20472;-78
2023/09/16 02:19:55;;;;;;;7.40;4.87;;;;;;;;;;5086318;28;20464;-79
2023/09/16 02:22:23;;;;;;;6.27;4.20;;;;;;;;;;5084750;28;20514;-79
2023/09/16 02:24:55;;;;;;;7.37;5.40;;;;;;;;;;5083026;28;20445;-79
2023/09/16 02:27:26;;;;;;;6.10;4.30;;;;;;;;;;5086734;28;20439;-78
2023/09/16 02:29:59;;;;;;;6.30;3.73;;;;;;;;;;5084848;28;20523;-78
2023/09/16 02:32:29;;;;;;;5.80;4.27;;;;;;;;;;5084591;28;20499;-79
2023/09/16 02:35:01;;;;;;;5.57;3.97;;;;;;;;;;5083402;28;20532;-78
2023/09/16 02:37:29;;;;;;;8.37;4.63;;;;;;;;;;5085811;28;20480;-78
2023/09/16 02:39:57;;;;;;;5.50;3.87;;;;;;;;;;5082267;28;20440;-78
2023/09/16 02:53:47;;;;;;;6.90;4.73;;;;;;;;;;5001296;28;20836;-75
2023/09/16 02:56:23;;;;;;;5.67;4.10;;;;;;;;;;5002855;28;20602;-76
2023/09/16 02:58:54;;;;;;;6.97;4.80;;;;;;;;;;5039954;28;20578;-75
2023/09/16 03:01:22;;;;;;;7.17;4.30;;;;;;;;;;5043452;28;20859;-74
2023/09/16 03:03:53;;;;;;;6.47;4.93;;;;;;;;;;5041102;28;20458;-76
2023/09/16 03:06:29;;;;;;;5.70;4.40;;;;;;;;;;5042438;28;20442;-75
2023/09/16 03:09:01;;;;;;;6.50;4.90;;;;;;;;;;5037460;28;20532;-76
2023/09/16 03:11:36;;;;;;;6.87;5.20;;;;;;;;;;5022290;28;20876;-75
2023/09/16 03:14:20;;;;;;;6.40;4.77;;;;;;;;;;4998526;28;20456;-75
2023/09/16 03:16:49;;;;;;;8.77;4.87;;;;;;;;;;5007672;28;20557;-74
2023/09/16 03:19:17;;;;;;;6.33;4.50;;;;;;;;;;5038284;28;20677;-75
2023/09/16 03:21:52;;;;;;;8.97;5.27;;;;;;;;;;5038091;28;20465;-75
2023/09/16 03:24:30;;;;;;;6.00;4.63;;;;;;;;;;5039376;28;20944;-73
2023/09/16 03:26:59;;;;;;;9.00;5.10;;;;;;;;;;5029843;28;20450;-75
2023/09/16 03:29:28;;;;;;;7.20;5.10;;;;;;;;;;5032542;28;20466;-75
2023/09/16 03:32:00;;;;;;;10.53;5.10;;;;;;;;;;5019634;28;20455;-75
2023/09/16 03:34:33;;;;;;;6.60;4.90;;;;;;;;;;5019286;28;20478;-74
2023/09/16 03:37:01;;;;;;;7.40;5.43;;;;;;;;;;5020216;28;20781;-74
2023/09/16 03:39:36;;;;;;;6.77;6.07;;;;;;;;;;5019077;28;20546;-75
2023/09/16 03:52:48;;;;;;;5.60;3.80;;;;;;;;;;5026227;26;20512;-75
2023/09/16 03:58:13;;;;;;;7.43;5.53;;;;;;;;;;5058558;28;20831;-77
2023/09/16 04:00:47;;;;;;;8.53;5.87;;;;;;;;;;5058714;28;20519;-76
2023/09/16 04:03:16;;;;;;;7.00;5.20;;;;;;;;;;5058731;28;20889;-76
2023/09/16 04:05:44;;;;;;;8.37;4.63;;;;;;;;;;5057174;28;20495;-76
2023/09/16 04:08:21;;;;;;;9.03;5.37;;;;;;;;;;5058722;28;20445;-76
2023/09/16 04:10:53;;;;;;;5.00;4.13;;;;;;;;;;5059654;28;20473;-75
2023/09/16 04:13:29;;;;;;;9.17;5.90;;;;;;;;;;5061311;28;20464;-76
2023/09/16 04:16:43;;;;;;;9.37;4.60;;;;;;;;;;5061181;28;20776;-76
2023/09/16 04:19:16;;;;;;;5.83;4.10;;;;;;;;;;5059432;28;20465;-75
2023/09/16 04:22:04;;;;;;;6.40;5.27;;;;;;;;;;5043854;28;20461;-76
2023/09/16 04:24:51;;;;;;;7.63;4.93;;;;;;;;;;5058999;28;20759;-75
2023/09/16 04:27:47;;;;;;;6.57;4.70;;;;;;;;;;5074089;28;20522;-77
2023/09/16 04:30:15;;;;;;;6.27;4.27;;;;;;;;;;5079055;28;20558;-76
2023/09/16 04:32:52;;;;;;;7.10;4.83;;;;;;;;;;5080762;28;20848;-76
2023/09/16 04:35:28;;;;;;;6.90;5.33;;;;;;;;;;5080004;28;20487;-76
2023/09/16 04:37:59;;;;;;;8.03;5.10;;;;;;;;;;5079315;28;20514;-75
2023/09/16 04:43:13;;;;;;;6.17;4.40;;;;;;;;;;2271191;22;20471;-79
2023/09/16 04:45:44;;;;;;;6.87;5.07;;;;;;;;;;5067592;28;20459;-78
2023/09/16 04:48:14;;;;;;;8.40;6.00;;;;;;;;;;5068161;28;20474;-78
2023/09/16 04:50:45;;;;;;;8.30;5.50;;;;;;;;;;5065555;28;20749;-78
2023/09/16 04:53:13;;;;;;;8.17;5.30;;;;;;;;;;5064533;28;20867;-78
2023/09/16 04:55:41;;;;;;;9.23;5.30;;;;;;;;;;5066256;28;20453;-78
2023/09/16 04:58:11;;;;;;;8.90;4.97;;;;;;;;;;5065907;28;20517;-78
2023/09/16 05:00:55;;;;;;;8.70;5.10;;;;;;;;;;5066772;28;20466;-79
2023/09/16 05:03:23;;;;;;;9.03;5.10;;;;;;;;;;5065901;28;20441;-79
2023/09/16 05:05:54;;;;;;;6.00;4.53;;;;;;;;;;5065946;28;20530;-79
2023/09/16 05:08:22;;;;;;;6.93;5.13;;;;;;;;;;5067214;28;20464;-79
2023/09/16 05:10:54;;;;;;;7.23;5.87;;;;;;;;;;5064621;28;20469;-78
2023/09/16 05:13:24;;;;;;;9.13;5.23;;;;;;;;;;5064087;28;20484;-77
2023/09/16 05:15:52;;;;;;;7.00;5.10;;;;;;;;;;5063521;28;20461;-78
2023/09/16 05:18:20;;;;;;;10.10;6.10;;;;;;;;;;5062915;28;20442;-78
2023/09/16 05:20:52;;;;;;;8.43;6.07;;;;;;;;;;5064748;28;20836;-78
2023/09/16 05:23:23;;;;;;;7.97;5.90;;;;;;;;;;5064692;28;20521;-79
2023/09/16 05:25:51;;;;;;;7.80;5.67;;;;;;;;;;5064257;28;20454;-78
2023/09/16 05:28:20;;;;;;;7.60;5.80;;;;;;;;;;5063893;28;20449;-78
2023/09/16 05:30:49;;;;;;;10.13;6.30;;;;;;;;;;5063494;28;20445;-78
2023/09/16 05:33:17;;;;;;;8.10;7.00;;;;;;;;;;5061903;28;20496;-78
2023/09/16 05:35:45;;;;;;;8.13;5.70;;;;;;;;;;5064411;28;20537;-79
2023/09/16 05:38:13;;;;;;;8.33;5.70;;;;;;;;;;5066421;28;20500;-78
2023/09/16 05:41:12;;;;;;;9.30;7.27;;;;;;;;;;5065292;28;20461;-79
2023/09/16 05:43:40;;;;;;;10.23;6.30;;;;;;;;;;5061817;28;20573;-78
2023/09/16 05:46:10;;;;;;;12.10;6.00;;;;;;;;;;5059953;28;20619;-79
2023/09/16 05:48:38;;;;;;;11.63;7.23;;;;;;;;;;5061070;28;20492;-78
2023/09/16 05:51:08;;;;;;;8.70;7.33;;;;;;;;;;5061401;28;20465;-79
2023/09/16 05:53:36;;;;;;;7.77;6.30;;;;;;;;;;5054766;28;20599;-78
2023/09/16 05:56:06;;;;;;;6.87;5.43;;;;;;;;;;5062023;28;20854;-79
2023/09/16 05:58:34;;;;;;;7.80;6.37;;;;;;;;;;5062679;28;20460;-77
2023/09/16 06:01:02;;;;;;;9.70;6.27;;;;;;;;;;5063205;28;20462;-79
2023/09/16 06:03:32;;;;;;;11.10;6.30;;;;;;;;;;5095972;28;20488;-78
2023/09/16 06:06:00;;;;;;;9.00;6.33;;;;;;;;;;5104063;28;20428;-78
2023/09/16 06:08:28;;;;;;;14.40;6.20;;;;;;;;;;5100046;28;20452;-78
2023/09/16 06:10:57;;;;;;;7.87;6.20;;;;;;;;;;5092664;28;20468;-78
2023/09/16 06:13:25;;;;;;;7.57;5.73;;;;;;;;;;5083154;28;20448;-78
2023/09/16 06:15:53;;;;;;;7.80;5.73;;;;;;;;;;5081829;28;20476;-78
2023/09/16 06:18:21;;;;;;;7.30;6.27;;;;;;;;;;5081118;28;20484;-77
2023/09/16 06:20:52;;;;;;;8.63;6.67;;;;;;;;;;5081337;28;20468;-79
2023/09/16 06:23:20;;;;;;;9.30;6.07;;;;;;;;;;5081981;28;21024;-79
2023/09/16 06:25:52;;;;;;;7.53;5.90;;;;;;;;;;5082374;28;20460;-80
2023/09/16 06:28:21;;;;;;;7.27;5.93;;;;;;;;;;5081324;28;20813;-79
2023/09/16 06:30:49;;;;;;;7.07;5.50;;;;;;;;;;5082315;28;20487;-78
2023/09/16 06:33:17;;;;;;;6.93;5.33;;;;;;;;;;5078548;28;20799;-78
2023/09/16 06:35:45;;;;;;;7.13;6.00;;;;;;;;;;5081973;28;20460;-79
2023/09/16 06:38:15;;;;;;;7.70;5.57;;;;;;;;;;5082063;28;20527;-78
2023/09/16 06:43:48;;;;;;;7.67;5.37;;;;;;;;;;5082342;28;20530;-78
2023/09/16 06:46:23;;;;;;;6.73;5.93;;;;;;;;;;5083403;28;20448;-78
2023/09/16 06:48:51;;;;;;;6.20;5.60;;;;;;;;;;5083815;28;20452;-79
2023/09/16 06:51:20;;;;;;;7.63;4.80;;;;;;;;;;5084545;28;20463;-77
2023/09/16 06:53:56;;;;;;;7.47;5.77;;;;;;;;;;5084998;28;20456;-78
2023/09/16 06:56:31;;;;;;;7.23;5.67;;;;;;;;;;5083050;28;20669;-77
2023/09/16 06:59:01;;;;;;;12.23;5.83;;;;;;;;;;5081124;28;20440;-78
2023/09/16 07:01:30;;;;;;;8.20;5.50;;;;;;;;;;5084836;28;20460;-77
2023/09/16 07:03:59;;;;;;;6.97;4.50;;;;;;;;;;5083606;28;20877;-78
2023/09/16 07:06:27;;;;;;;5.90;4.60;;;;;;;;;;5080467;28;20467;-77
2023/09/16 07:08:57;;;;;;;7.00;5.17;;;;;;;;;;5079424;28;20449;-77
2023/09/16 07:11:25;;;;;;;5.77;4.90;;;;;;;;;;5079095;28;20456;-77
2023/09/16 07:13:54;;;;;;;6.20;4.93;;;;;;;;;;5078661;28;20523;-77
2023/09/16 07:16:23;;;;;;;6.20;4.80;;;;;;;;;;5078433;28;20448;-77
2023/09/16 07:18:52;;;;;;;8.00;5.70;;;;;;;;;;5078720;28;20575;-77
2023/09/16 07:21:20;;;;;;;10.20;5.30;;;;;;;;;;5070009;28;20933;-77
2023/09/16 07:24:01;;;;;;;6.87;5.40;;;;;;;;;;5068932;28;20527;-77
2023/09/16 07:26:38;;;;;;;8.07;5.70;;;;;;;;;;5059469;28;20738;-77
2023/09/16 07:29:07;;;;;;;7.90;5.20;;;;;;;;;;5060423;28;20449;-77
2023/09/16 07:31:36;;;;;;;7.87;5.13;;;;;;;;;;5059487;28;20457;-77
2023/09/16 07:34:04;;;;;;;7.97;5.00;;;;;;;;;;5057943;28;20584;-78
2023/09/16 07:36:34;;;;;;;10.57;5.07;;;;;;;;;;5059810;28;20461;-78
2023/09/16 07:39:07;;;;;;;7.70;4.90;;;;;;;;;;5076363;28;20433;-77
2023/09/16 07:44:49;;;;;;;10.00;5.43;;;;;;;;;;5068809;28;20523;-78
2023/09/16 07:47:20;;;;;;;8.23;5.03;;;;;;;;;;5069479;28;20445;-78
2023/09/16 07:49:49;;;;;;;9.37;4.67;;;;;;;;;;5067328;28;20453;-78
2023/09/16 07:52:29;;;;;;;11.53;5.90;;;;;;;;;;5065350;28;20496;-79
2023/09/16 07:54:58;;;;;;;9.00;5.00;;;;;;;;;;5060343;28;20477;-77
2023/09/16 07:57:29;;;;;;;10.13;5.50;;;;;;;;;;5054402;28;20481;-77
2023/09/16 08:00:03;;;;;;;8.10;4.10;;;;;;;;;;5042714;28;20469;-77
2023/09/16 08:03:14;;;;;;;9.07;4.60;;;;;;;;;;5049092;28;20469;-77
2023/09/16 08:05:50;;;;;;;8.40;3.53;;;;;;;;;;5061114;28;20504;-77
2023/09/16 08:08:38;;;;;;;12.73;4.20;;;;;;;;;;5055809;28;20928;-78
2023/09/16 08:11:08;;;;;;;6.87;4.33;;;;;;;;;;5041892;28;20449;-78
2023/09/16 08:13:43;;;;;;;7.93;4.53;;;;;;;;;;5053385;28;20508;-77
2023/09/16 08:16:16;;;;;;;7.50;4.03;;;;;;;;;;5048534;28;20453;-79
2023/09/16 08:19:08;;;;;;;7.13;4.00;;;;;;;;;;5052722;28;20477;-78
2023/09/16 08:21:37;;;;;;;7.27;3.43;;;;;;;;;;5043918;28;20461;-78
2023/09/16 08:24:08;;;;;;;8.33;4.17;;;;;;;;;;5041132;28;20470;-78
2023/09/16 08:27:01;;;;;;;6.90;3.80;;;;;;;;;;5050905;28;20545;-77
2023/09/16 08:29:30;;;;;;;7.93;4.60;;;;;;;;;;5072624;28;20526;-77
2023/09/16 08:32:00;;;;;;;11.53;4.30;;;;;;;;;;5076120;28;20469;-76
2023/09/16 08:37:28;;;;;;;9.03;4.87;;;;;;;;;;5061997;28;20499;-78
2023/09/16 08:40:14;;;;;;;10.17;4.80;;;;;;;;;;5071511;28;20470;-77
2023/09/16 08:42:46;;;;;;;9.33;4.33;;;;;;;;;;5061211;28;20593;-76
2023/09/16 08:45:19;;;;;;;6.60;3.83;;;;;;;;;;5065179;28;20888;-76
2023/09/16 08:47:51;;;;;;;7.20;4.40;;;;;;;;;;5081329;28;20433;-78
2023/09/16 08:50:24;;;;;;;9.53;4.50;;;;;;;;;;5063486;28;20552;-77
2023/09/16 08:52:56;;;;;;;7.53;4.43;;;;;;;;;;5059631;28;20500;-77
2023/09/16 08:55:34;;;;;;;5.83;3.73;;;;;;;;;;5061325;28;20457;-76
2023/09/16 08:58:09;;;;;;;8.37;4.03;;;;;;;;;;5058369;28;21210;-78
2023/09/16 09:00:45;;;;;;;7.60;3.57;;;;;;;;;;5060993;28;20480;-78
2023/09/16 09:03:17;;;;;;;8.63;4.10;;;;;;;;;;5061428;28;20446;-77
2023/09/16 09:08:41;;;;;;;7.13;4.37;;;;;;;;;;5062977;28;20454;-78
2023/09/16 09:14:54;;;;;;;5.90;3.40;;;;;;;;;;5071927;28;20909;-77
2023/09/16 09:17:39;;;;;;;6.73;3.63;;;;;;;;;;5066692;28;20453;-78
2023/09/16 09:20:22;;;;;;;6.97;3.43;;;;;;;;;;5074524;28;20460;-77
2023/09/16 09:23:02;;;;;;;8.10;3.97;;;;;;;;;;5062221;28;20473;-79
2023/09/16 09:28:34;;;;;;;5.20;3.20;;;;;;;;;;5054143;28;20558;-77
2023/09/16 09:37:18;;;;;;;5.47;3.70;;;;;;;;;;5021345;28;20678;-78
2023/09/16 09:39:48;;;;;;;5.60;3.77;;;;;;;;;;5016960;28;20454;-78
2023/09/16 09:42:23;;;;;;;7.60;2.90;;;;;;;;;;5025313;28;20468;-79
2023/09/16 09:45:22;;;;;;;4.80;2.93;;;;;;;;;;5031659;28;20455;-78
2023/09/16 09:47:52;;;;;;;6.40;3.33;;;;;;;;;;5042766;28;20473;-78
2023/09/16 09:50:21;;;;;;;4.63;2.83;;;;;;;;;;5032046;28;20525;-78
2023/09/16 09:52:59;;;;;;;4.40;3.17;;;;;;;;;;5043454;28;20466;-79
2023/09/16 09:55:29;;;;;;;7.50;3.80;;;;;;;;;;5038545;28;20874;-78
2023/09/16 09:58:07;;;;;;;5.63;3.53;;;;;;;;;;5040080;28;20483;-79
2023/09/16 10:00:56;;;;;;;7.13;3.40;;;;;;;;;;5033693;28;20450;-77
2023/09/16 10:03:25;;;;;;;6.93;5.10;;;;;;;;;;5033297;28;20461;-77
2023/09/16 10:05:55;;;;;;;4.70;3.43;;;;;;;;;;5037159;28;20479;-78
2023/09/16 10:08:24;;;;;;;6.33;3.40;;;;;;;;;;5027206;28;20551;-79
2023/09/16 10:10:55;;;;;;;5.47;2.70;;;;;;;;;;5027555;28;20443;-78
2023/09/16 10:13:26;;;;;;;8.40;5.13;;;;;;;;;;5036076;28;20736;-77
2023/09/16 10:15:54;;;;;;;7.87;4.50;;;;;;;;;;5045503;28;20516;-77
2023/09/16 10:18:32;;;;;;;9.67;6.50;;;;;;;;;;5030582;28;21017;-79
2023/09/16 10:21:17;;;;;;;6.00;3.90;;;;;;;;;;5022970;28;20451;-76
2023/09/16 10:23:46;;;;;;;4.93;3.40;;;;;;;;;;5017497;28;20468;-76
2023/09/16 10:26:43;;;;;;;5.00;3.67;;;;;;;;;;5023739;28;21106;-78
2023/09/16 10:33:12;;;;;;;6.97;3.20;;;;;;;;;;5014037;28;20494;-78
2023/09/16 10:35:41;;;;;;;5.00;3.00;;;;;;;;;;5023382;28;20509;-78
2023/09/16 10:38:10;;;;;;;8.30;4.03;;;;;;;;;;5018092;28;20479;-78
2023/09/16 10:52:37;;;;;;;7.73;3.93;;;;;;;;;;5064637;28;20505;-78
2023/09/16 10:55:18;;;;;;;7.77;4.53;;;;;;;;;;5063140;28;20531;-77
2023/09/16 10:57:52;;;;;;;8.00;4.33;;;;;;;;;;5067942;28;20468;-79
2023/09/16 11:06:47;;;;;;;;;;;;;;;;;;;;;
2023/09/16 11:09:53;;;;;;;7.87;3.67;;;;;;;;;;5055466;28;20444;-79
2023/09/16 11:15:58;;;;;;;5.17;2.77;;;;;;;;;;5054268;28;20457;-76
2023/09/16 11:27:27;;;;;;;6.20;3.73;;;;;;;;;;5699381;23;20249;-77
2023/09/16 11:30:46;;;;;;;8.93;4.40;;;;;;;;;;5076531;28;20462;-77
2023/09/16 11:33:49;;;;;;;7.40;4.23;;;;;;;;;;5075740;28;20460;-74
2023/09/16 11:54:17;;;;;;;;;;;;;;;;;;;;;
2023/09/16 12:05:50;;;;;;;10.47;3.57;;;;;;;;;;5085914;28;20209;-77
2023/09/16 12:08:42;;;;;;;5.80;3.20;;;;;;;;;;4979219;28;20299;-78
2023/09/16 12:11:57;;;;;;;6.77;3.87;;;;;;;;;;5022879;28;20494;-78
2023/09/16 12:15:04;;;;;;;5.57;3.30;;;;;;;;;;5037254;28;20458;-77
2023/09/16 12:24:17;;;;;;;;;;;;;;;;;;;;;
2023/09/16 12:27:07;;;;;;;7.63;3.33;;;;;;;;;;4996553;28;20736;-78
2023/09/16 12:41:20;;;;;;;;;;;;;;;;;;;;;
2023/09/16 12:55:43;;;;;;;5.23;2.90;;;;;;;;;;5057689;28;20601;-78
2023/09/16 13:06:50;;;;;;;6.70;3.20;;;;;;;;;;5053316;28;20223;-76
2023/09/16 13:09:36;;;;;;;6.73;4.17;;;;;;;;;;5048387;28;20215;-77
2023/09/16 13:20:51;;;;;;;5.20;2.70;;;;;;;;;;5061266;28;20300;-76
2023/09/16 13:23:36;;;;;;;8.20;3.97;;;;;;;;;;5048419;28;20810;-77
2023/09/16 13:29:32;;;;;;;4.83;2.90;;;;;;;;;;5053198;28;20456;-76
2023/09/16 13:32:13;;;;;;;5.50;3.20;;;;;;;;;;5045828;28;20458;-78
2023/09/16 13:51:35;;;;;;;6.40;2.97;;;;;;;;;;5109510;22;20846;-76
2023/09/16 13:54:25;;;;;;;5.23;2.70;;;;;;;;;;5044809;28;21103;-78
2023/09/16 13:57:14;;;;;;;5.60;3.30;;;;;;;;;;5056645;28;20469;-77
2023/09/16 14:04:01;;;;;;;7.33;3.00;;;;;;;;;;5053349;28;20503;-77
2023/09/16 14:10:24;;;;;;;5.23;3.07;;;;;;;;;;5058862;28;20560;-77
2023/09/16 14:13:23;;;;;;;4.60;2.63;;;;;;;;;;5051766;28;20574;-76
2023/09/16 14:33:46;;;;;;;6.20;4.00;;;;;;;;;;5087132;28;20547;-77
2023/09/16 14:38:44;;;;;;;7.07;3.80;;;;;;;;;;5062029;28;20789;-76
2023/09/16 15:58:31;;;;;;;;;;;;;;;;;;;;;
2023/09/16 16:01:14;;;;;;;9.80;4.87;;;;;;;;;;5015397;28;20455;-77
2023/09/16 16:07:15;;;;;;;14.10;7.83;;;;;;;;;;5022199;28;20556;-76
2023/09/16 16:10:00;;;;;;;8.33;5.13;;;;;;;;;;5033227;28;20477;-76
2023/09/16 16:12:52;;;;;;;8.67;4.60;;;;;;;;;;5023596;28;20463;-76
2023/09/16 16:15:31;;;;;;;10.50;6.10;;;;;;;;;;5014942;28;20570;-77
2023/09/16 16:18:12;;;;;;;13.57;8.33;;;;;;;;;;5037799;28;20450;-78
2023/09/16 16:26:31;;;;;;;12.43;7.17;;;;;;;;;;5060772;28;20428;-76
2023/09/16 16:29:00;;;;;;;7.77;4.80;;;;;;;;;;5072477;28;20593;-77
2023/09/16 16:31:34;;;;;;;8.93;5.60;;;;;;;;;;5075819;28;21124;-77
2023/09/16 16:34:18;;;;;;;9.07;5.30;;;;;;;;;;5075304;28;20460;-77
2023/09/16 16:37:19;;;;;;;7.03;4.53;;;;;;;;;;5037330;28;20490;-77
2023/09/16 16:58:49;;;;;;;12.87;6.23;;;;;;;;;;3438795;22;20517;-76
2023/09/16 17:01:23;;;;;;;9.23;6.30;;;;;;;;;;5013279;28;20475;-75
2023/09/16 17:04:02;;;;;;;9.37;6.00;;;;;;;;;;5029684;28;20500;-76
2023/09/16 17:06:37;;;;;;;10.30;5.27;;;;;;;;;;5052267;28;20492;-74
2023/09/16 17:09:09;;;;;;;8.77;5.13;;;;;;;;;;5050139;28;20445;-76
2023/09/16 17:11:53;;;;;;;10.70;7.43;;;;;;;;;;5041088;28;20465;-75
2023/09/16 17:14:55;;;;;;;9.07;4.33;;;;;;;;;;5042823;28;20486;-77
2023/09/16 17:17:30;;;;;;;7.80;5.30;;;;;;;;;;5034196;28;20454;-76
2023/09/16 17:20:17;;;;;;;9.93;6.53;;;;;;;;;;5033759;28;20528;-76
2023/09/16 17:22:48;;;;;;;8.77;5.33;;;;;;;;;;5036369;28;20458;-76
2023/09/16 17:28:24;;;;;;;7.90;5.00;;;;;;;;;;5029609;28;20505;-75
2023/09/16 17:30:56;;;;;;;8.80;5.77;;;;;;;;;;5031078;28;20483;-76
2023/09/16 17:34:04;;;;;;;7.70;5.10;;;;;;;;;;5032642;28;20434;-75
2023/09/16 17:36:38;;;;;;;12.70;6.13;;;;;;;;;;5029390;28;20653;-71
2023/09/16 17:39:25;;;;;;;;;;;;;;;;;;;;;
2023/09/16 17:47:33;;;;;;;9.50;7.03;;;;;;;;;;5080923;28;20619;-78
2023/09/16 17:50:10;;;;;;;10.17;7.53;;;;;;;;;;5082336;28;20432;-79
2023/09/16 17:52:41;;;;;;;9.90;7.07;;;;;;;;;;5085859;28;20479;-79
2023/09/16 17:55:12;;;;;;;15.93;7.83;;;;;;;;;;5079954;28;20459;-79
2023/09/16 17:57:42;;;;;;;11.37;7.23;;;;;;;;;;5078765;28;20444;-79
2023/09/16 18:00:12;;;;;;;8.77;6.17;;;;;;;;;;5085245;28;20491;-79
2023/09/16 18:02:45;;;;;;;13.90;8.63;;;;;;;;;;5081987;28;20752;-78
2023/09/16 18:05:15;;;;;;;12.90;7.30;;;;;;;;;;5079573;28;20444;-78
2023/09/16 18:07:45;;;;;;;11.30;6.93;;;;;;;;;;5081790;28;20541;-77
2023/09/16 18:10:17;;;;;;;15.90;7.50;;;;;;;;;;5079993;28;20525;-79
2023/09/16 18:12:49;;;;;;;12.37;8.67;;;;;;;;;;5079235;28;20495;-78
2023/09/16 18:15:17;;;;;;;13.53;8.30;;;;;;;;;;5080515;28;20469;-78
2023/09/16 18:17:46;;;;;;;14.53;8.40;;;;;;;;;;5079486;28;20440;-77
2023/09/16 18:20:18;;;;;;;13.47;8.17;;;;;;;;;;5078011;28;20476;-78
2023/09/16 18:22:49;;;;;;;14.10;8.63;;;;;;;;;;5077892;28;20547;-80
2023/09/16 18:25:18;;;;;;;12.80;8.50;;;;;;;;;;5078195;28;20452;-78
2023/09/16 18:27:46;;;;;;;14.40;11.10;;;;;;;;;;5078902;28;20845;-78
2023/09/16 18:30:17;;;;;;;14.17;9.87;;;;;;;;;;5079454;28;20453;-77
2023/09/16 18:32:45;;;;;;;16.70;10.40;;;;;;;;;;5078017;28;20446;-79
2023/09/16 18:35:13;;;;;;;15.00;10.13;;;;;;;;;;5078837;28;20445;-79
2023/09/16 18:37:42;;;;;;;13.33;8.97;;;;;;;;;;5077909;28;20492;-78
2023/09/16 18:48:38;;;;;;;17.50;9.73;;;;;;;;;;5718889;22;20849;-74
2023/09/16 18:51:10;;;;;;;14.07;9.00;;;;;;;;;;5023619;28;21212;-74
2023/09/16 18:53:52;;;;;;;14.40;10.23;;;;;;;;;;5014220;28;20502;-73
2023/09/16 18:56:23;;;;;;;13.30;9.60;;;;;;;;;;5013806;28;20510;-75
2023/09/16 18:58:51;;;;;;;14.37;9.90;;;;;;;;;;5017343;28;20498;-75
2023/09/16 19:01:23;;;;;;;14.67;9.23;;;;;;;;;;5034353;28;20979;-75
2023/09/16 19:04:02;;;;;;;13.27;9.63;;;;;;;;;;5031487;28;20450;-75
2023/09/16 19:09:34;;;;;;;17.63;11.40;;;;;;;;;;4995219;28;20527;-74
2023/09/16 19:12:06;;;;;;;18.70;12.77;;;;;;;;;;5014308;28;20879;-75
2023/09/16 19:17:39;;;;;;;17.97;15.07;;;;;;;;;;5010087;28;20470;-76
2023/09/16 19:20:16;;;;;;;20.37;13.40;;;;;;;;;;5014596;28;20479;-74
2023/09/16 19:23:08;;;;;;;17.80;13.27;;;;;;;;;;5011858;28;20984;-76
2023/09/16 19:25:55;;;;;;;16.57;12.63;;;;;;;;;;4994869;28;20467;-75
2023/09/16 19:28:23;;;;;;;18.43;14.87;;;;;;;;;;5009239;28;20711;-75
2023/09/16 19:30:51;;;;;;;15.83;11.00;;;;;;;;;;5006749;28;21116;-74
2023/09/16 19:33:50;;;;;;;12.87;10.77;;;;;;;;;;4993454;28;20488;-74
2023/09/16 19:36:25;;;;;;;14.63;11.27;;;;;;;;;;5005075;28;20475;-76
2023/09/16 19:44:26;;;;;;;17.17;13.30;;;;;;;;;;5858325;22;20453;-75
2023/09/16 19:46:54;;;;;;;21.00;13.80;;;;;;;;;;4991076;28;20799;-76
2023/09/16 19:49:27;;;;;;;16.00;13.03;;;;;;;;;;4988818;28;20877;-75
2023/09/16 19:52:13;;;;;;;15.23;12.30;;;;;;;;;;4993945;28;20456;-75
2023/09/16 19:54:44;;;;;;;19.33;13.53;;;;;;;;;;4996686;28;20489;-75
2023/09/16 19:57:15;;;;;;;18.43;14.33;;;;;;;;;;4996160;28;20490;-73
2023/09/16 19:59:45;;;;;;;23.40;14.20;;;;;;;;;;4994153;28;21616;-73
2023/09/16 20:02:13;;;;;;;16.67;13.50;;;;;;;;;;4996029;28;20452;-74
2023/09/16 20:10:56;;;;;;;14.77;12.17;;;;;;;;;;4990535;28;20483;-75
2023/09/16 20:13:25;;;;;;;13.50;11.87;;;;;;;;;;4996896;28;20482;-75
2023/09/16 20:16:11;;;;;;;16.97;12.53;;;;;;;;;;4998941;28;20460;-76
2023/09/16 20:18:39;;;;;;;16.53;12.97;;;;;;;;;;4992485;28;20523;-74
2023/09/16 20:24:34;;;;;;;19.47;14.40;;;;;;;;;;4978074;28;20432;-74
2023/09/16 20:27:06;;;;;;;18.27;16.00;;;;;;;;;;4975956;28;20453;-74
2023/09/16 20:29:37;;;;;;;22.80;14.67;;;;;;;;;;4986346;28;21095;-75
2023/09/16 20:32:09;;;;;;;18.63;16.67;;;;;;;;;;4995676;28;20444;-75
2023/09/16 20:34:53;;;;;;;18.77;16.80;;;;;;;;;;4996512;28;20467;-73
2023/09/16 20:37:25;;;;;;;18.47;15.03;;;;;;;;;;4996473;28;20448;-74
2023/09/16 20:39:53;;;;;;;19.87;15.90;;;;;;;;;;4994360;28;20498;-72
2023/09/16 20:45:10;;;;;;;21.00;15.93;;;;;;;;;;4991179;28;20778;-74
2023/09/16 20:47:41;;;;;;;20.20;15.77;;;;;;;;;;4991437;28;20518;-73
2023/09/16 20:50:33;;;;;;;19.63;16.10;;;;;;;;;;4991819;28;20457;-74
2023/09/16 20:53:07;;;;;;;22.67;17.10;;;;;;;;;;4992036;28;20896;-75
2023/09/16 20:55:36;;;;;;;21.80;16.47;;;;;;;;;;5008758;28;20490;-74
2023/09/16 20:58:07;;;;;;;18.17;15.23;;;;;;;;;;5012091;28;20467;-75
2023/09/16 21:00:37;;;;;;;18.87;14.73;;;;;;;;;;5013369;28;21058;-75
2023/09/16 21:03:05;;;;;;;16.43;13.90;;;;;;;;;;5010987;28;20451;-74
2023/09/16 21:05:35;;;;;;;18.30;15.53;;;;;;;;;;5011818;28;20513;-75
2023/09/16 21:08:03;;;;;;;18.50;13.53;;;;;;;;;;5013454;28;20529;-75
2023/09/16 21:10:33;;;;;;;16.80;13.80;;;;;;;;;;5015584;28;20459;-75
2023/09/16 21:13:07;;;;;;;17.57;13.70;;;;;;;;;;5017679;28;20461;-75
2023/09/16 21:15:38;;;;;;;16.17;12.00;;;;;;;;;;5019271;28;21086;-73
2023/09/16 21:18:11;;;;;;;16.70;12.47;;;;;;;;;;5018750;28;20458;-74
2023/09/16 21:23:23;;;;;;;18.00;13.90;;;;;;;;;;5016439;28;20957;-76
2023/09/16 21:26:12;;;;;;;16.90;12.03;;;;;;;;;;5019182;28;20484;-75
2023/09/16 21:28:44;;;;;;;15.50;12.30;;;;;;;;;;5018527;28;20451;-75
2023/09/16 21:31:15;;;;;;;17.27;13.43;;;;;;;;;;5017213;28;20473;-74
2023/09/16 21:33:45;;;;;;;17.07;12.70;;;;;;;;;;5014810;28;20451;-74
2023/09/16 21:36:13;;;;;;;15.73;12.87;;;;;;;;;;5016665;28;20436;-74
2023/09/16 21:38:44;;;;;;;16.43;12.17;;;;;;;;;;5015611;28;20475;-74
2023/09/16 21:49:22;;;;;;;14.23;11.70;;;;;;;;;;4762540;22;20501;-75
2023/09/16 21:51:51;;;;;;;14.70;10.40;;;;;;;;;;5035349;28;20558;-75
2023/09/16 21:54:19;;;;;;;14.73;11.30;;;;;;;;;;5033572;28;20803;-74
2023/09/16 21:56:48;;;;;;;13.63;11.57;;;;;;;;;;5033028;28;20462;-74
2023/09/16 21:59:18;;;;;;;14.03;11.27;;;;;;;;;;5033497;28;20901;-75
2023/09/16 22:02:01;;;;;;;15.27;11.00;;;;;;;;;;5032204;28;20490;-74
2023/09/16 22:04:34;;;;;;;14.13;10.90;;;;;;;;;;5032567;28;20451;-75
2023/09/16 22:07:09;;;;;;;15.10;12.13;;;;;;;;;;5035581;28;20458;-75